Oroso, Spain
Current Conditions -  °F | °C
As of 11:30 PM on Friday 24 Oct 2014 (Local Time) from LEST Reporting Station
Few Clouds Few Clouds  
Wind Chill: 59°   Ceiling: Unl
Heat Index: 59°   Visibility: 6mi
Dew Point: 55°   Wind: 0mph
Humidity: 88%   Direction: NA
Pressure: 30.15"   Gusts: NA
Location:  42.98°N, 8.43°W
Report Text: LEST 242130Z 00000KT 9999 FEW040 15/13 Q1021 NOSIG
Loading
Personal Weather Stations






























Interactive Weather Map
Tropical Storm Tracking
New forecast layout! Learn more

10-Day Weather Forecast

Advertisements
Track Severe Weather on mobile